Terminal Aerodrome Forecast
Issued by NWS Jackson, KY

Home | Current Version | Previous Version | Text Only | Print | Product List | Glossary On
Versions: 1 2 3 4 5 6 7 8 9 10 11 12 13 14 15 16 17 18 19 20 21 22
000
FTUS43 KJKL 261731
TAFJKL
TAF
KJKL 261731Z 2618/2718 VRB03KT P6SM BKN050
     FM270000 VRB03KT P6SM -RA OVC050
     FM270700 VRB03KT 3SM BR OVC025
     FM271100 VRB03KT P6SM OVC020
     FM271300 VRB03KT P6SM BKN040=

USA.gov is the U.S. government's official web portal to all federal, state and local government web resources and services.